createdAt,value
2023-04-15T00:01:00.069Z,68.00
2023-04-15T00:03:29.368Z,67.80
2023-04-15T00:05:58.910Z,67.50
2023-04-15T00:08:26.920Z,67.20
2023-04-15T00:10:55.436Z,66.70
2023-04-15T00:13:23.203Z,66.00
2023-04-15T00:15:51.280Z,66.20
2023-04-15T00:18:19.470Z,66.00
2023-04-15T00:20:47.561Z,66.10
2023-04-15T00:23:15.452Z,66.20
2023-04-15T00:25:43.835Z,65.90
2023-04-15T00:28:11.532Z,65.90
2023-04-15T00:30:39.816Z,65.70
2023-04-15T00:33:08.434Z,65.50
2023-04-15T00:35:37.885Z,65.20
2023-04-15T00:38:08.827Z,65.30
2023-04-15T00:40:36.808Z,65.40
2023-04-15T00:43:05.958Z,65.50
2023-04-15T00:45:34.059Z,65.80
2023-04-15T00:48:02.117Z,67.30
2023-04-15T00:50:30.120Z,68.00
2023-04-15T00:52:58.045Z,68.80
2023-04-15T00:55:27.286Z,68.80
2023-04-15T00:57:56.495Z,68.50
2023-04-15T01:00:25.253Z,68.30
2023-04-15T01:02:53.725Z,67.60
2023-04-15T01:05:22.054Z,68.00
2023-04-15T01:07:49.956Z,68.30
2023-04-15T01:10:18.179Z,68.30
2023-04-15T01:12:46.297Z,68.50
2023-04-15T01:15:14.434Z,68.40
2023-04-15T01:17:42.332Z,68.70
2023-04-15T01:20:11.216Z,68.80
2023-04-15T01:22:39.828Z,68.90
2023-04-15T01:25:16.166Z,68.80
2023-04-15T01:27:44.714Z,68.20
2023-04-15T01:30:12.945Z,67.40
2023-04-15T01:32:40.986Z,65.30
2023-04-15T01:35:09.325Z,63.70
2023-04-15T01:37:38.087Z,62.70
2023-04-15T01:40:06.521Z,62.30
2023-04-15T01:42:35.697Z,63.30
2023-04-15T01:45:04.387Z,63.60
2023-04-15T01:47:32.620Z,63.60
2023-04-15T01:50:00.471Z,62.40
2023-04-15T01:52:29.962Z,62.90
2023-04-15T01:54:58.116Z,64.30
2023-04-15T01:57:27.032Z,65.30
2023-04-15T01:59:55.124Z,66.20
2023-04-15T02:02:23.351Z,66.40
2023-04-15T02:04:51.206Z,66.70
2023-04-15T02:07:20.110Z,67.50
2023-04-15T02:09:48.023Z,68.10
2023-04-15T02:12:15.952Z,67.70
2023-04-15T02:14:43.718Z,67.80
2023-04-15T02:17:12.119Z,68.00
2023-04-15T02:19:40.928Z,68.20
2023-04-15T02:22:09.918Z,68.30
2023-04-15T02:24:38.085Z,68.30
2023-04-15T02:27:06.490Z,68.30
2023-04-15T02:29:34.281Z,68.70
2023-04-15T02:32:02.529Z,69.60
2023-04-15T02:34:30.817Z,69.70
2023-04-15T02:36:59.566Z,69.70
2023-04-15T02:39:27.635Z,70.30
2023-04-15T02:41:55.951Z,70.50
2023-04-15T02:44:25.461Z,70.50
2023-04-15T02:46:59.130Z,70.40
2023-04-15T02:49:30.321Z,70.50
2023-04-15T02:51:58.769Z,70.80
2023-04-15T02:54:29.159Z,71.80
2023-04-15T02:56:58.252Z,71.20
2023-04-15T02:59:26.357Z,69.70
2023-04-15T03:01:55.948Z,69.60
2023-04-15T03:04:23.922Z,69.70
2023-04-15T03:06:52.205Z,69.50
2023-04-15T03:09:20.158Z,69.40
2023-04-15T03:11:48.538Z,69.50
2023-04-15T03:14:17.328Z,69.70
2023-04-15T03:16:47.882Z,69.90
2023-04-15T03:19:18.183Z,69.70
2023-04-15T03:21:46.191Z,69.30
2023-04-15T03:24:14.781Z,69.40
2023-04-15T03:26:42.840Z,70.20
2023-04-15T03:29:13.766Z,70.00
2023-04-15T03:31:42.910Z,70.30
2023-04-15T03:34:10.647Z,70.30
2023-04-15T03:36:38.820Z,70.50
2023-04-15T03:39:06.813Z,70.80
2023-04-15T03:41:34.843Z,70.70
2023-04-15T03:44:02.660Z,71.00
2023-04-15T03:46:31.169Z,71.00
2023-04-15T03:48:59.312Z,71.60
2023-04-15T03:51:27.405Z,71.10
2023-04-15T03:53:55.311Z,70.40
2023-04-15T03:56:23.404Z,70.30
2023-04-15T03:58:52.485Z,69.70
2023-04-15T04:01:21.150Z,69.70
2023-04-15T04:03:49.148Z,69.40
2023-04-15T04:06:17.495Z,69.50
2023-04-15T04:08:45.376Z,69.90
2023-04-15T04:11:13.491Z,70.70
2023-04-15T04:13:42.118Z,71.40
2023-04-15T04:16:10.326Z,72.10
2023-04-15T04:18:38.239Z,72.60
2023-04-15T04:21:09.028Z,72.90
2023-04-15T04:23:37.500Z,73.10
2023-04-15T04:26:05.449Z,73.00
2023-04-15T04:28:33.737Z,73.10
2023-04-15T04:31:01.786Z,72.90
2023-04-15T04:33:30.052Z,72.60
2023-04-15T04:35:57.849Z,72.50
2023-04-15T04:38:26.337Z,72.70
2023-04-15T04:40:54.389Z,72.50
2023-04-15T04:43:22.496Z,72.70
2023-04-15T04:45:50.475Z,72.90
2023-04-15T04:48:19.032Z,72.90
2023-04-15T04:50:47.409Z,72.40
2023-04-15T04:53:15.898Z,71.90
2023-04-15T04:55:43.629Z,71.40
2023-04-15T04:58:12.381Z,72.00
2023-04-15T05:00:42.416Z,71.50
2023-04-15T05:03:10.867Z,71.40
2023-04-15T05:05:41.558Z,71.80
2023-04-15T05:08:09.598Z,72.00
2023-04-15T05:10:37.342Z,71.80
2023-04-15T05:13:05.474Z,71.00
2023-04-15T05:15:33.761Z,70.30
2023-04-15T05:18:01.759Z,70.90
2023-04-15T05:20:29.999Z,69.90
2023-04-15T05:22:58.102Z,70.10
2023-04-15T05:25:26.400Z,69.50
2023-04-15T05:27:54.531Z,69.90
2023-04-15T05:30:22.646Z,69.90
2023-04-15T05:32:51.246Z,69.60
2023-04-15T05:35:19.568Z,69.20
2023-04-15T05:37:47.513Z,69.30
2023-04-15T05:40:16.076Z,69.20
2023-04-15T05:42:44.167Z,68.50
2023-04-15T05:45:12.595Z,68.50
2023-04-15T05:47:40.695Z,68.40
2023-04-15T05:50:08.824Z,69.10
2023-04-15T05:52:37.571Z,69.70
2023-04-15T05:55:05.833Z,69.40
2023-04-15T05:57:33.985Z,69.70
2023-04-15T06:00:01.969Z,69.00
2023-04-15T06:02:37.733Z,69.20
2023-04-15T06:05:10.306Z,69.30
2023-04-15T06:07:39.000Z,69.50
2023-04-15T06:10:07.724Z,69.80
2023-04-15T06:12:36.608Z,70.00
2023-04-15T06:15:04.681Z,70.50
2023-04-15T06:17:32.752Z,71.00
2023-04-15T06:20:00.711Z,70.90
2023-04-15T06:22:28.747Z,70.50
2023-04-15T06:24:56.920Z,70.10
2023-04-15T06:27:24.990Z,70.30
2023-04-15T06:29:53.024Z,70.10
2023-04-15T06:32:21.297Z,70.10
2023-04-15T06:34:49.246Z,70.70
2023-04-15T06:37:17.474Z,71.00
2023-04-15T06:39:45.407Z,71.20
2023-04-15T06:42:13.661Z,71.10
2023-04-15T06:44:41.852Z,70.70
2023-04-15T06:47:09.997Z,70.80
2023-04-15T06:49:37.982Z,71.00
2023-04-15T06:52:06.147Z,71.40
2023-04-15T06:54:33.848Z,71.40
2023-04-15T06:57:02.207Z,72.20
2023-04-15T06:59:30.615Z,72.60
2023-04-15T07:01:58.785Z,72.80
2023-04-15T07:04:26.776Z,73.30
2023-04-15T07:06:56.027Z,73.30
2023-04-15T07:09:25.119Z,73.40
2023-04-15T07:11:53.482Z,74.00
2023-04-15T07:14:21.303Z,74.40
2023-04-15T07:16:49.390Z,74.50
2023-04-15T07:19:18.020Z,75.30
2023-04-15T07:21:48.028Z,74.70
2023-04-15T07:24:20.540Z,75.20
2023-04-15T07:26:48.557Z,75.10
2023-04-15T07:29:16.431Z,76.20
2023-04-15T07:31:44.442Z,76.50
2023-04-15T07:34:12.392Z,76.50
2023-04-15T07:36:40.832Z,76.50
2023-04-15T07:39:08.880Z,75.70
2023-04-15T07:41:37.379Z,75.80
2023-04-15T07:44:05.744Z,75.30
2023-04-15T07:46:33.904Z,75.50
2023-04-15T07:49:02.043Z,76.00
2023-04-15T07:51:31.105Z,76.50
2023-04-15T07:53:59.452Z,76.70
2023-04-15T07:56:27.572Z,76.20
2023-04-15T07:58:55.568Z,76.20
2023-04-15T08:01:23.724Z,75.90
2023-04-15T08:03:51.937Z,75.50
2023-04-15T08:06:20.027Z,75.60
2023-04-15T08:08:48.140Z,75.10
2023-04-15T08:11:16.578Z,75.20
2023-04-15T08:13:44.598Z,75.60
2023-04-15T08:16:19.224Z,74.60
2023-04-15T08:18:48.800Z,74.90
2023-04-15T08:21:18.044Z,75.40
2023-04-15T08:23:51.429Z,75.90
2023-04-15T08:26:20.690Z,76.20
2023-04-15T08:28:51.824Z,76.80
2023-04-15T08:31:20.348Z,76.70
2023-04-15T08:33:48.633Z,75.80
2023-04-15T08:36:19.465Z,75.20
2023-04-15T08:38:51.162Z,73.40
2023-04-15T08:41:23.477Z,72.30
2023-04-15T08:43:58.760Z,72.20
2023-04-15T08:46:27.332Z,72.80
2023-04-15T08:48:58.079Z,72.80
2023-04-15T08:51:27.708Z,73.30
2023-04-15T08:53:55.942Z,72.70
2023-04-15T08:56:29.745Z,72.40
2023-04-15T08:58:58.694Z,73.50
2023-04-15T09:01:27.847Z,73.30
2023-04-15T09:03:58.356Z,73.10
2023-04-15T09:06:26.760Z,72.80
2023-04-15T09:08:54.598Z,73.70
2023-04-15T09:11:23.269Z,73.10
2023-04-15T09:13:51.955Z,72.70
2023-04-15T09:16:20.669Z,72.00
2023-04-15T09:18:48.904Z,70.00
2023-04-15T09:21:19.822Z,69.90
2023-04-15T09:24:00.496Z,69.60
2023-04-15T09:26:36.477Z,67.40
2023-04-15T09:29:15.152Z,66.70
2023-04-15T09:31:44.137Z,67.40
2023-04-15T09:34:12.977Z,67.80
2023-04-15T09:36:54.805Z,68.40
2023-04-15T09:39:23.206Z,68.70
2023-04-15T09:42:09.374Z,68.70
2023-04-15T09:44:38.045Z,68.10
2023-04-15T09:47:06.252Z,67.40
2023-04-15T09:49:34.601Z,67.40
2023-04-15T09:52:05.660Z,66.80
2023-04-15T09:54:38.953Z,66.70
2023-04-15T09:57:09.329Z,67.30
2023-04-15T09:59:37.931Z,67.90
2023-04-15T10:02:08.140Z,68.50
2023-04-15T10:04:40.523Z,68.20
2023-04-15T10:07:10.426Z,69.20
2023-04-15T10:09:39.939Z,70.10
2023-04-15T10:12:08.345Z,70.10
2023-04-15T10:14:39.010Z,70.40
2023-04-15T10:17:08.868Z,70.10
2023-04-15T10:19:38.492Z,68.30
2023-04-15T10:22:08.620Z,69.50
2023-04-15T10:24:37.859Z,70.00
2023-04-15T10:27:07.095Z,70.60
2023-04-15T10:29:35.822Z,69.00
2023-04-15T10:32:04.409Z,68.20
2023-04-15T10:34:33.555Z,68.30
2023-04-15T10:37:05.536Z,68.40
2023-04-15T10:39:42.510Z,68.70
2023-04-15T10:42:13.250Z,69.00
2023-04-15T10:44:49.925Z,69.10
2023-04-15T10:47:21.816Z,69.80
2023-04-15T10:49:52.827Z,70.70
2023-04-15T10:52:26.359Z,69.10
2023-04-15T10:55:19.274Z,68.60
2023-04-15T10:57:47.679Z,70.50
2023-04-15T11:00:17.860Z,72.50
2023-04-15T11:02:55.269Z,74.20
2023-04-15T11:05:40.284Z,77.60
2023-04-15T11:08:09.415Z,80.30
2023-04-15T11:10:37.232Z,82.50
2023-04-15T11:13:17.410Z,82.70
2023-04-15T11:15:47.462Z,83.20
2023-04-15T11:18:31.161Z,86.60
2023-04-15T11:21:04.513Z,89.80
2023-04-15T11:23:41.723Z,93.70
2023-04-15T11:26:12.572Z,96.10
2023-04-15T11:28:43.177Z,97.30
2023-04-15T11:31:16.979Z,97.40
2023-04-15T11:33:54.505Z,99.30
2023-04-15T11:36:27.649Z,99.90
2023-04-15T11:38:56.768Z,99.90
2023-04-15T11:41:24.789Z,99.90
2023-04-15T11:43:53.139Z,99.90
2023-04-15T11:46:23.302Z,99.90
2023-04-15T11:48:51.360Z,99.90
2023-04-15T11:51:21.173Z,99.90
2023-04-15T11:56:23.851Z,99.90
2023-04-15T11:59:02.746Z,99.90
2023-04-15T12:01:35.836Z,99.90
2023-04-15T12:04:11.530Z,99.90
2023-04-15T12:06:40.391Z,99.90
2023-04-15T12:09:10.781Z,99.90
2023-04-15T12:11:59.479Z,99.90
2023-04-15T12:14:29.353Z,99.90
2023-04-15T12:17:05.915Z,99.90
2023-04-15T12:19:42.616Z,99.90
2023-04-15T12:22:16.519Z,99.90
2023-04-15T12:24:48.600Z,99.90
2023-04-15T12:27:18.082Z,99.90
2023-04-15T12:29:46.195Z,99.90
2023-04-15T12:32:21.456Z,99.60
2023-04-15T12:34:54.806Z,99.90
2023-04-15T12:37:23.062Z,99.90
2023-04-15T12:39:51.284Z,99.90
2023-04-15T12:42:20.031Z,99.90
2023-04-15T12:44:47.968Z,99.90
2023-04-15T12:47:16.228Z,99.90
2023-04-15T12:49:44.055Z,99.90
2023-04-15T12:52:12.283Z,99.90
2023-04-15T12:54:40.366Z,99.90
2023-04-15T12:57:08.801Z,99.90
2023-04-15T12:59:37.871Z,99.90
2023-04-15T13:02:16.255Z,99.90
2023-04-15T13:04:44.767Z,99.90
2023-04-15T13:07:14.614Z,99.90
2023-04-15T13:09:43.176Z,99.90
2023-04-15T13:12:14.138Z,99.90
2023-04-15T13:14:42.425Z,99.90
2023-04-15T13:17:12.080Z,99.90
2023-04-15T13:19:40.443Z,99.90
2023-04-15T13:22:09.517Z,99.90
2023-04-15T13:24:37.816Z,99.90
2023-04-15T13:27:06.266Z,99.90
2023-04-15T13:29:34.191Z,99.90
2023-04-15T13:32:02.483Z,99.90
2023-04-15T13:34:31.050Z,99.90
2023-04-15T13:36:59.166Z,99.90
2023-04-15T13:39:27.721Z,99.90
2023-04-15T13:41:56.528Z,99.90
2023-04-15T13:44:24.564Z,99.90
2023-04-15T13:46:53.248Z,99.90
2023-04-15T13:49:21.454Z,99.90
2023-04-15T13:51:49.316Z,99.90
2023-04-15T13:54:17.395Z,99.90
2023-04-15T13:56:45.403Z,99.90
2023-04-15T13:59:14.152Z,99.90
2023-04-15T14:01:42.256Z,99.90
2023-04-15T14:04:10.755Z,99.90
2023-04-15T14:06:38.978Z,99.90
2023-04-15T14:09:07.410Z,99.90
2023-04-15T14:11:37.077Z,99.90
2023-04-15T14:14:06.186Z,99.90
2023-04-15T14:16:35.083Z,99.90
2023-04-15T14:19:03.835Z,99.90
2023-04-15T14:21:33.139Z,99.90
2023-04-15T14:24:01.326Z,99.90
2023-04-15T14:26:29.516Z,99.90
2023-04-15T14:28:57.548Z,99.90
2023-04-15T14:31:25.802Z,99.90
2023-04-15T14:33:53.762Z,99.90
2023-04-15T14:36:21.670Z,99.90
2023-04-15T14:38:49.783Z,99.90
2023-04-15T14:41:17.704Z,99.90
2023-04-15T14:43:45.910Z,99.90
2023-04-15T14:46:14.867Z,99.90
2023-04-15T14:48:43.952Z,98.40
2023-04-15T14:51:12.059Z,98.30
2023-04-15T14:53:40.428Z,97.70
2023-04-15T14:56:08.356Z,98.50
2023-04-15T14:58:36.941Z,94.30
2023-04-15T15:01:05.385Z,93.60
2023-04-15T15:03:34.292Z,93.50
2023-04-15T15:06:02.393Z,93.30
2023-04-15T15:08:30.509Z,94.30
2023-04-15T15:10:58.484Z,95.40
2023-04-15T15:13:26.598Z,96.40
2023-04-15T15:15:54.530Z,96.70
2023-04-15T15:18:22.670Z,96.90
2023-04-15T15:20:50.630Z,96.60
2023-04-15T15:23:19.089Z,95.80
2023-04-15T15:25:48.014Z,95.40
2023-04-15T15:28:16.423Z,95.00
2023-04-15T15:30:44.364Z,95.70
2023-04-15T15:33:12.661Z,96.20
2023-04-15T15:35:41.534Z,96.00
2023-04-15T15:38:11.615Z,95.60
2023-04-15T15:40:39.928Z,94.30
2023-04-15T15:43:07.933Z,93.00
2023-04-15T15:45:36.707Z,93.00
2023-04-15T15:48:05.975Z,92.00
2023-04-15T15:50:35.297Z,91.00
2023-04-15T15:53:03.339Z,90.90
2023-04-15T15:55:31.627Z,90.80
2023-04-15T15:58:00.135Z,91.10
2023-04-15T16:00:28.592Z,92.00
2023-04-15T16:05:29.260Z,90.70
2023-04-15T16:07:57.251Z,90.70
2023-04-15T16:10:25.511Z,91.10
2023-04-15T16:12:53.605Z,90.80
2023-04-15T16:15:22.996Z,91.80
2023-04-15T16:17:50.946Z,91.70
2023-04-15T16:20:19.103Z,91.30
2023-04-15T16:22:46.866Z,92.10
2023-04-15T16:25:14.972Z,91.30
2023-04-15T16:27:57.107Z,91.20
2023-04-15T16:30:27.442Z,90.70
2023-04-15T16:32:55.682Z,91.10
2023-04-15T16:35:23.847Z,91.30
2023-04-15T16:37:51.671Z,91.30
2023-04-15T16:40:19.874Z,91.20
2023-04-15T16:42:47.718Z,91.10
2023-04-15T16:45:16.518Z,90.50
2023-04-15T16:47:44.959Z,90.90
2023-04-15T16:50:13.309Z,91.40
2023-04-15T16:52:41.287Z,93.10
2023-04-15T16:55:09.632Z,95.60
2023-04-15T16:57:50.703Z,96.60
2023-04-15T17:00:26.032Z,97.40
2023-04-15T17:02:55.717Z,98.00
2023-04-15T17:05:24.017Z,98.00
2023-04-15T17:07:52.153Z,98.40
2023-04-15T17:10:20.243Z,98.30
2023-04-15T17:12:48.562Z,98.30
2023-04-15T17:15:16.733Z,98.20
2023-04-15T17:17:44.844Z,98.10
2023-04-15T17:20:13.074Z,97.40
2023-04-15T17:22:41.169Z,95.80
2023-04-15T17:25:09.543Z,95.60
2023-04-15T17:27:39.342Z,95.10
2023-04-15T17:30:08.735Z,94.90
2023-04-15T17:32:37.698Z,94.80
2023-04-15T17:35:06.873Z,94.90
2023-04-15T17:37:35.225Z,95.20
2023-04-15T17:40:05.264Z,95.50
2023-04-15T17:42:35.102Z,95.70
2023-04-15T17:45:03.155Z,95.80
2023-04-15T17:47:31.484Z,96.00
2023-04-15T17:49:59.449Z,96.20
2023-04-15T17:52:27.521Z,96.50
2023-04-15T17:54:56.484Z,96.60
2023-04-15T17:57:25.904Z,96.80
2023-04-15T17:59:54.508Z,96.70
2023-04-15T18:02:22.888Z,96.80
2023-04-15T18:04:51.374Z,96.80
2023-04-15T18:07:19.668Z,97.10
2023-04-15T18:09:47.915Z,97.40
2023-04-15T18:12:15.942Z,97.70
2023-04-15T18:14:44.098Z,97.70
2023-04-15T18:17:14.772Z,97.90
2023-04-15T18:19:44.097Z,98.00
2023-04-15T18:22:12.430Z,98.20
2023-04-15T18:24:40.775Z,98.40
2023-04-15T18:27:08.860Z,98.50
2023-04-15T18:29:37.025Z,98.60
2023-04-15T18:32:05.021Z,98.60
2023-04-15T18:34:33.251Z,98.80
2023-04-15T18:37:01.742Z,99.00
2023-04-15T18:39:29.848Z,99.10
2023-04-15T18:42:00.871Z,99.30
2023-04-15T18:44:29.137Z,99.40
2023-04-15T18:46:57.007Z,99.40
2023-04-15T18:49:26.366Z,99.50
2023-04-15T18:51:54.612Z,99.50
2023-04-15T18:54:23.245Z,99.60
2023-04-15T18:56:52.286Z,99.80
2023-04-15T18:59:28.378Z,99.90
2023-04-15T19:01:59.137Z,99.90
2023-04-15T19:04:29.573Z,99.90
2023-04-15T19:06:59.404Z,99.90
2023-04-15T19:09:28.733Z,99.90
2023-04-15T19:11:57.162Z,99.90
2023-04-15T19:14:25.424Z,99.90
2023-04-15T19:16:53.565Z,99.90
2023-04-15T19:19:21.878Z,99.90
2023-04-15T19:21:50.541Z,99.90
2023-04-15T19:24:19.334Z,99.90
2023-04-15T19:26:51.259Z,99.90
2023-04-15T19:29:19.527Z,99.90
2023-04-15T19:31:47.513Z,99.90
2023-04-15T19:34:15.751Z,99.90
2023-04-15T19:36:43.888Z,99.90
2023-04-15T19:39:12.366Z,99.90
2023-04-15T19:41:40.520Z,99.90
2023-04-15T19:44:08.827Z,99.90
2023-04-15T19:46:37.090Z,99.90
2023-04-15T19:49:05.752Z,99.90
2023-04-15T19:51:34.101Z,99.90
2023-04-15T19:54:02.126Z,99.90
2023-04-15T19:56:31.663Z,99.90
2023-04-15T19:59:02.609Z,99.90
2023-04-15T20:01:30.920Z,99.90
2023-04-15T20:03:59.559Z,99.90
2023-04-15T20:06:30.783Z,99.90
2023-04-15T20:08:59.109Z,99.90
2023-04-15T20:12:05.039Z,99.90
2023-04-15T20:14:20.951Z,99.90
2023-04-15T20:16:49.269Z,99.90
2023-04-15T20:19:17.053Z,99.90
2023-04-15T20:21:46.047Z,99.90
2023-04-15T20:24:14.118Z,99.90
2023-04-15T20:26:42.462Z,99.90
2023-04-15T20:29:10.499Z,99.90
2023-04-15T20:31:38.936Z,99.90
2023-04-15T20:34:07.182Z,99.90
2023-04-15T20:36:36.391Z,99.90
2023-04-15T20:39:04.425Z,99.90
2023-04-15T20:41:32.684Z,99.90
2023-04-15T20:44:00.732Z,99.90
2023-04-15T20:46:29.144Z,99.90
2023-04-15T20:48:57.368Z,99.90
2023-04-15T20:51:27.632Z,99.90
2023-04-15T20:53:55.999Z,99.90
2023-04-15T20:56:24.056Z,99.90
2023-04-15T20:58:52.427Z,99.90
2023-04-15T21:01:20.534Z,99.90
2023-04-15T21:03:48.793Z,99.90
2023-04-15T21:06:16.982Z,99.90
2023-04-15T21:08:45.332Z,99.90
2023-04-15T21:11:18.883Z,99.90
2023-04-15T21:13:57.121Z,99.90
2023-04-15T21:16:25.301Z,99.90
2023-04-15T21:18:53.658Z,99.90
2023-04-15T21:21:21.499Z,99.90
2023-04-15T21:23:49.520Z,99.90
2023-04-15T21:26:19.066Z,99.90
2023-04-15T21:28:47.143Z,99.90
2023-04-15T21:31:14.986Z,99.90
2023-04-15T21:33:43.151Z,99.90
2023-04-15T21:36:11.297Z,99.90
2023-04-15T21:38:39.457Z,99.90
2023-04-15T21:41:10.004Z,99.90
2023-04-15T21:43:38.477Z,99.90
2023-04-15T21:46:22.223Z,99.90
2023-04-15T21:48:56.596Z,99.90
2023-04-15T21:51:24.913Z,99.90
2023-04-15T21:53:53.729Z,99.90
2023-04-15T21:56:23.722Z,99.90
2023-04-15T21:58:57.992Z,99.90
2023-04-15T22:01:27.047Z,99.90
2023-04-15T22:03:55.039Z,99.90
2023-04-15T22:06:23.152Z,99.90
2023-04-15T22:09:11.302Z,99.90
2023-04-15T22:11:39.232Z,99.90
2023-04-15T22:14:07.189Z,99.90
2023-04-15T22:16:35.360Z,99.90
2023-04-15T22:19:03.133Z,99.90
2023-04-15T22:21:31.076Z,99.90
2023-04-15T22:24:32.559Z,99.90
2023-04-15T22:26:46.608Z,99.90
2023-04-15T22:29:14.215Z,99.90
2023-04-15T22:31:42.272Z,99.90
2023-04-15T22:34:10.414Z,99.90
2023-04-15T22:36:38.629Z,99.90
2023-04-15T22:39:06.778Z,99.90
2023-04-15T22:41:34.843Z,99.90
2023-04-15T22:44:02.651Z,99.90
2023-04-15T22:46:30.642Z,99.90
2023-04-15T22:48:58.633Z,99.90
2023-04-15T22:51:29.748Z,99.90
2023-04-15T22:53:58.894Z,99.90
2023-04-15T22:56:26.958Z,99.90
2023-04-15T22:58:54.876Z,99.90
2023-04-15T23:01:22.938Z,99.90
2023-04-15T23:03:55.797Z,99.90
2023-04-15T23:06:25.910Z,99.90
2023-04-15T23:08:54.283Z,99.90
2023-04-15T23:11:22.501Z,99.90
2023-04-15T23:13:51.349Z,99.90
2023-04-15T23:16:19.200Z,99.90
2023-04-15T23:18:47.115Z,99.90
2023-04-15T23:21:15.077Z,99.90
2023-04-15T23:23:42.883Z,99.90
2023-04-15T23:26:10.610Z,99.90
2023-04-15T23:28:38.396Z,99.90
2023-04-15T23:31:07.541Z,99.90
2023-04-15T23:33:35.339Z,99.90
2023-04-15T23:36:03.296Z,99.90
2023-04-15T23:38:31.155Z,99.90
2023-04-15T23:40:59.582Z,99.90
2023-04-15T23:43:27.661Z,99.90
2023-04-15T23:45:55.505Z,99.90
2023-04-15T23:48:24.064Z,99.90
2023-04-15T23:50:51.996Z,99.90
2023-04-15T23:53:19.787Z,99.90
2023-04-15T23:55:49.084Z,99.90
2023-04-15T23:58:17.142Z,99.90
